sensor_id;sensor_type;location;lat;lon;timestamp;P1;durP1;ratioP1;P2;durP2;ratioP2
10096;SDS011;5087;42.662;23.466;2024-01-16T00:01:07;2.90;;;2.90;;
10096;SDS011;5087;42.662;23.466;2024-01-16T00:03:35;3.00;;;3.00;;
10096;SDS011;5087;42.662;23.466;2024-01-16T00:06:03;2.37;;;2.37;;
10096;SDS011;5087;42.662;23.466;2024-01-16T00:08:33;2.30;;;2.30;;
10096;SDS011;5087;42.662;23.466;2024-01-16T00:11:01;2.30;;;2.30;;
10096;SDS011;5087;42.662;23.466;2024-01-16T00:13:28;1.90;;;1.90;;
10096;SDS011;5087;42.662;23.466;2024-01-16T00:15:55;2.00;;;2.00;;
10096;SDS011;5087;42.662;23.466;2024-01-16T00:18:23;2.20;;;2.20;;
10096;SDS011;5087;42.662;23.466;2024-01-16T00:20:51;2.40;;;2.40;;
10096;SDS011;5087;42.662;23.466;2024-01-16T00:23:19;2.50;;;2.50;;
10096;SDS011;5087;42.662;23.466;2024-01-16T00:25:47;2.50;;;2.50;;
10096;SDS011;5087;42.662;23.466;2024-01-16T00:28:15;2.60;;;2.60;;
10096;SDS011;5087;42.662;23.466;2024-01-16T00:30:44;2.80;;;2.80;;
10096;SDS011;5087;42.662;23.466;2024-01-16T00:33:12;2.90;;;2.90;;
10096;SDS011;5087;42.662;23.466;2024-01-16T00:35:39;3.20;;;3.20;;
10096;SDS011;5087;42.662;23.466;2024-01-16T00:38:06;2.90;;;2.90;;
10096;SDS011;5087;42.662;23.466;2024-01-16T00:40:34;2.97;;;2.97;;
10096;SDS011;5087;42.662;23.466;2024-01-16T00:43:02;2.77;;;2.77;;
10096;SDS011;5087;42.662;23.466;2024-01-16T00:45:30;2.50;;;2.50;;
10096;SDS011;5087;42.662;23.466;2024-01-16T00:47:57;2.80;;;2.80;;
10096;SDS011;5087;42.662;23.466;2024-01-16T00:50:24;2.90;;;2.90;;
10096;SDS011;5087;42.662;23.466;2024-01-16T00:52:52;2.50;;;2.50;;
10096;SDS011;5087;42.662;23.466;2024-01-16T00:55:19;2.80;;;2.80;;
10096;SDS011;5087;42.662;23.466;2024-01-16T00:57:47;3.10;;;3.10;;
10096;SDS011;5087;42.662;23.466;2024-01-16T01:00:16;2.90;;;2.90;;
10096;SDS011;5087;42.662;23.466;2024-01-16T01:02:44;2.77;;;2.77;;
10096;SDS011;5087;42.662;23.466;2024-01-16T01:05:11;2.83;;;2.83;;
10096;SDS011;5087;42.662;23.466;2024-01-16T01:07:38;2.90;;;2.90;;
10096;SDS011;5087;42.662;23.466;2024-01-16T01:10:06;2.90;;;2.90;;
10096;SDS011;5087;42.662;23.466;2024-01-16T01:12:33;2.60;;;2.60;;
10096;SDS011;5087;42.662;23.466;2024-01-16T01:15:01;2.80;;;2.80;;
10096;SDS011;5087;42.662;23.466;2024-01-16T01:17:30;2.73;;;2.73;;
10096;SDS011;5087;42.662;23.466;2024-01-16T01:19:58;2.67;;;2.67;;
10096;SDS011;5087;42.662;23.466;2024-01-16T01:22:26;2.60;;;2.60;;
10096;SDS011;5087;42.662;23.466;2024-01-16T01:24:53;3.10;;;3.10;;
10096;SDS011;5087;42.662;23.466;2024-01-16T01:27:20;3.30;;;3.30;;
10096;SDS011;5087;42.662;23.466;2024-01-16T01:29:48;3.30;;;3.30;;
10096;SDS011;5087;42.662;23.466;2024-01-16T01:32:15;3.23;;;3.23;;
10096;SDS011;5087;42.662;23.466;2024-01-16T01:34:44;3.50;;;3.50;;
10096;SDS011;5087;42.662;23.466;2024-01-16T01:37:12;3.53;;;3.53;;
10096;SDS011;5087;42.662;23.466;2024-01-16T01:39:40;3.30;;;3.30;;
10096;SDS011;5087;42.662;23.466;2024-01-16T01:42:07;3.50;;;3.50;;
10096;SDS011;5087;42.662;23.466;2024-01-16T01:44:34;3.40;;;3.40;;
10096;SDS011;5087;42.662;23.466;2024-01-16T01:47:02;2.90;;;2.90;;
10096;SDS011;5087;42.662;23.466;2024-01-16T01:49:31;2.90;;;2.90;;
10096;SDS011;5087;42.662;23.466;2024-01-16T01:52:03;2.90;;;2.90;;
10096;SDS011;5087;42.662;23.466;2024-01-16T01:54:31;2.80;;;2.80;;
10096;SDS011;5087;42.662;23.466;2024-01-16T01:57:02;3.13;;;3.13;;
10096;SDS011;5087;42.662;23.466;2024-01-16T01:59:30;3.10;;;3.10;;
10096;SDS011;5087;42.662;23.466;2024-01-16T02:02:01;3.30;;;3.30;;
10096;SDS011;5087;42.662;23.466;2024-01-16T02:04:31;3.50;;;3.50;;
10096;SDS011;5087;42.662;23.466;2024-01-16T02:07:00;3.20;;;3.20;;
10096;SDS011;5087;42.662;23.466;2024-01-16T02:09:31;3.70;;;3.70;;
10096;SDS011;5087;42.662;23.466;2024-01-16T02:11:59;3.73;;;3.73;;
10096;SDS011;5087;42.662;23.466;2024-01-16T02:14:27;3.80;;;3.80;;
10096;SDS011;5087;42.662;23.466;2024-01-16T02:16:55;3.10;;;3.10;;
10096;SDS011;5087;42.662;23.466;2024-01-16T02:19:22;3.20;;;3.20;;
10096;SDS011;5087;42.662;23.466;2024-01-16T02:21:52;3.30;;;3.30;;
10096;SDS011;5087;42.662;23.466;2024-01-16T02:24:28;3.20;;;3.20;;
10096;SDS011;5087;42.662;23.466;2024-01-16T02:26:57;3.40;;;3.40;;
10096;SDS011;5087;42.662;23.466;2024-01-16T02:29:25;4.33;;;4.23;;
10096;SDS011;5087;42.662;23.466;2024-01-16T02:31:53;5.10;;;5.00;;
10096;SDS011;5087;42.662;23.466;2024-01-16T02:34:23;5.30;;;5.20;;
10096;SDS011;5087;42.662;23.466;2024-01-16T02:36:51;5.00;;;4.90;;
10096;SDS011;5087;42.662;23.466;2024-01-16T02:39:22;4.40;;;4.30;;
10096;SDS011;5087;42.662;23.466;2024-01-16T02:41:53;4.60;;;4.50;;
10096;SDS011;5087;42.662;23.466;2024-01-16T02:44:24;3.70;;;3.70;;
10096;SDS011;5087;42.662;23.466;2024-01-16T02:46:52;3.70;;;3.70;;
10096;SDS011;5087;42.662;23.466;2024-01-16T02:49:23;3.50;;;3.50;;
10096;SDS011;5087;42.662;23.466;2024-01-16T02:51:54;3.50;;;3.50;;
10096;SDS011;5087;42.662;23.466;2024-01-16T02:54:22;3.50;;;3.50;;
10096;SDS011;5087;42.662;23.466;2024-01-16T02:56:54;3.70;;;3.70;;
10096;SDS011;5087;42.662;23.466;2024-01-16T02:59:23;3.80;;;3.80;;
10096;SDS011;5087;42.662;23.466;2024-01-16T03:01:59;3.90;;;3.87;;
10096;SDS011;5087;42.662;23.466;2024-01-16T03:04:29;3.80;;;3.80;;
10096;SDS011;5087;42.662;23.466;2024-01-16T03:06:57;3.30;;;3.30;;
10096;SDS011;5087;42.662;23.466;2024-01-16T03:09:25;3.70;;;3.70;;
10096;SDS011;5087;42.662;23.466;2024-01-16T03:14:47;3.30;;;3.30;;
10096;SDS011;5087;42.662;23.466;2024-01-16T03:17:18;3.50;;;3.50;;
10096;SDS011;5087;42.662;23.466;2024-01-16T03:19:48;3.40;;;3.40;;
10096;SDS011;5087;42.662;23.466;2024-01-16T03:22:20;3.30;;;3.30;;
10096;SDS011;5087;42.662;23.466;2024-01-16T03:24:49;3.50;;;3.50;;
10096;SDS011;5087;42.662;23.466;2024-01-16T03:27:20;3.50;;;3.50;;
10096;SDS011;5087;42.662;23.466;2024-01-16T03:29:48;3.20;;;3.20;;
10096;SDS011;5087;42.662;23.466;2024-01-16T03:32:17;2.90;;;2.90;;
10096;SDS011;5087;42.662;23.466;2024-01-16T03:34:45;3.00;;;3.00;;
10096;SDS011;5087;42.662;23.466;2024-01-16T03:37:12;2.80;;;2.80;;
10096;SDS011;5087;42.662;23.466;2024-01-16T03:39:39;2.30;;;2.30;;
10096;SDS011;5087;42.662;23.466;2024-01-16T03:42:07;1.90;;;1.90;;
10096;SDS011;5087;42.662;23.466;2024-01-16T03:44:39;1.80;;;1.80;;
10096;SDS011;5087;42.662;23.466;2024-01-16T03:47:07;1.10;;;1.10;;
10096;SDS011;5087;42.662;23.466;2024-01-16T03:49:34;1.00;;;1.00;;
10096;SDS011;5087;42.662;23.466;2024-01-16T03:52:02;0.90;;;0.90;;
10096;SDS011;5087;42.662;23.466;2024-01-16T03:54:29;0.80;;;0.80;;
10096;SDS011;5087;42.662;23.466;2024-01-16T03:56:57;0.70;;;0.70;;
10096;SDS011;5087;42.662;23.466;2024-01-16T03:59:24;0.50;;;0.50;;
10096;SDS011;5087;42.662;23.466;2024-01-16T04:01:56;0.60;;;0.60;;
10096;SDS011;5087;42.662;23.466;2024-01-16T04:04:24;0.60;;;0.60;;
10096;SDS011;5087;42.662;23.466;2024-01-16T04:06:59;0.40;;;0.40;;
10096;SDS011;5087;42.662;23.466;2024-01-16T04:09:26;0.60;;;0.60;;
10096;SDS011;5087;42.662;23.466;2024-01-16T04:11:54;0.70;;;0.70;;
10096;SDS011;5087;42.662;23.466;2024-01-16T04:14:22;0.70;;;0.70;;
10096;SDS011;5087;42.662;23.466;2024-01-16T04:16:49;0.90;;;0.90;;
10096;SDS011;5087;42.662;23.466;2024-01-16T04:19:20;1.20;;;1.20;;
10096;SDS011;5087;42.662;23.466;2024-01-16T04:21:48;1.30;;;1.30;;
10096;SDS011;5087;42.662;23.466;2024-01-16T04:24:15;1.30;;;1.30;;
10096;SDS011;5087;42.662;23.466;2024-01-16T04:26:43;1.30;;;1.30;;
10096;SDS011;5087;42.662;23.466;2024-01-16T04:29:11;1.50;;;1.50;;
10096;SDS011;5087;42.662;23.466;2024-01-16T04:31:42;1.40;;;1.40;;
10096;SDS011;5087;42.662;23.466;2024-01-16T04:34:10;1.30;;;1.30;;
10096;SDS011;5087;42.662;23.466;2024-01-16T04:36:39;1.30;;;1.30;;
10096;SDS011;5087;42.662;23.466;2024-01-16T04:39:06;1.40;;;1.40;;
10096;SDS011;5087;42.662;23.466;2024-01-16T04:41:34;1.40;;;1.40;;
10096;SDS011;5087;42.662;23.466;2024-01-16T04:44:03;1.60;;;1.60;;
10096;SDS011;5087;42.662;23.466;2024-01-16T04:46:30;1.57;;;1.57;;
10096;SDS011;5087;42.662;23.466;2024-01-16T04:48:57;1.40;;;1.40;;
10096;SDS011;5087;42.662;23.466;2024-01-16T04:51:25;1.50;;;1.50;;
10096;SDS011;5087;42.662;23.466;2024-01-16T04:53:54;1.63;;;1.63;;
10096;SDS011;5087;42.662;23.466;2024-01-16T04:56:21;1.80;;;1.80;;
10096;SDS011;5087;42.662;23.466;2024-01-16T04:58:48;1.60;;;1.60;;
10096;SDS011;5087;42.662;23.466;2024-01-16T05:01:17;2.00;;;2.00;;
10096;SDS011;5087;42.662;23.466;2024-01-16T05:03:44;1.90;;;1.90;;
10096;SDS011;5087;42.662;23.466;2024-01-16T05:06:12;2.00;;;2.00;;
10096;SDS011;5087;42.662;23.466;2024-01-16T05:08:41;2.10;;;2.10;;
10096;SDS011;5087;42.662;23.466;2024-01-16T05:11:10;2.00;;;2.00;;
10096;SDS011;5087;42.662;23.466;2024-01-16T05:13:38;2.00;;;2.00;;
10096;SDS011;5087;42.662;23.466;2024-01-16T05:16:06;2.20;;;2.20;;
10096;SDS011;5087;42.662;23.466;2024-01-16T05:18:33;2.43;;;2.43;;
10096;SDS011;5087;42.662;23.466;2024-01-16T05:21:00;2.30;;;2.30;;
10096;SDS011;5087;42.662;23.466;2024-01-16T05:23:28;2.40;;;2.40;;
10096;SDS011;5087;42.662;23.466;2024-01-16T05:25:55;2.40;;;2.40;;
10096;SDS011;5087;42.662;23.466;2024-01-16T05:28:25;2.57;;;2.57;;
10096;SDS011;5087;42.662;23.466;2024-01-16T05:30:56;2.57;;;2.57;;
10096;SDS011;5087;42.662;23.466;2024-01-16T05:33:23;2.60;;;2.60;;
10096;SDS011;5087;42.662;23.466;2024-01-16T05:36:16;2.30;;;2.30;;
10096;SDS011;5087;42.662;23.466;2024-01-16T05:38:44;2.80;;;2.80;;
10096;SDS011;5087;42.662;23.466;2024-01-16T05:41:11;2.50;;;2.50;;
10096;SDS011;5087;42.662;23.466;2024-01-16T05:43:42;2.30;;;2.30;;
10096;SDS011;5087;42.662;23.466;2024-01-16T05:46:09;2.30;;;2.30;;
10096;SDS011;5087;42.662;23.466;2024-01-16T05:48:36;2.10;;;2.10;;
10096;SDS011;5087;42.662;23.466;2024-01-16T05:51:04;2.20;;;2.20;;
10096;SDS011;5087;42.662;23.466;2024-01-16T05:53:31;2.10;;;2.10;;
10096;SDS011;5087;42.662;23.466;2024-01-16T05:55:59;1.80;;;1.80;;
10096;SDS011;5087;42.662;23.466;2024-01-16T05:58:27;2.10;;;2.10;;
10096;SDS011;5087;42.662;23.466;2024-01-16T06:00:55;2.20;;;2.20;;
10096;SDS011;5087;42.662;23.466;2024-01-16T06:03:23;1.90;;;1.90;;
10096;SDS011;5087;42.662;23.466;2024-01-16T06:05:50;1.87;;;1.87;;
10096;SDS011;5087;42.662;23.466;2024-01-16T06:08:19;2.00;;;2.00;;
10096;SDS011;5087;42.662;23.466;2024-01-16T06:10:47;2.20;;;2.20;;
10096;SDS011;5087;42.662;23.466;2024-01-16T06:13:14;2.13;;;2.13;;
10096;SDS011;5087;42.662;23.466;2024-01-16T06:15:45;2.37;;;2.37;;
10096;SDS011;5087;42.662;23.466;2024-01-16T06:18:14;2.40;;;2.40;;
10096;SDS011;5087;42.662;23.466;2024-01-16T06:20:42;2.50;;;2.50;;
10096;SDS011;5087;42.662;23.466;2024-01-16T06:23:10;2.60;;;2.60;;
10096;SDS011;5087;42.662;23.466;2024-01-16T06:25:38;2.50;;;2.50;;
10096;SDS011;5087;42.662;23.466;2024-01-16T06:28:06;2.60;;;2.60;;
10096;SDS011;5087;42.662;23.466;2024-01-16T06:30:34;2.50;;;2.50;;
10096;SDS011;5087;42.662;23.466;2024-01-16T06:33:01;2.50;;;2.50;;
10096;SDS011;5087;42.662;23.466;2024-01-16T06:35:31;2.80;;;2.80;;
10096;SDS011;5087;42.662;23.466;2024-01-16T06:37:59;2.57;;;2.57;;
10096;SDS011;5087;42.662;23.466;2024-01-16T06:40:27;2.80;;;2.80;;
10096;SDS011;5087;42.662;23.466;2024-01-16T06:42:55;2.53;;;2.53;;
10096;SDS011;5087;42.662;23.466;2024-01-16T06:45:22;2.80;;;2.80;;
10096;SDS011;5087;42.662;23.466;2024-01-16T06:47:55;2.80;;;2.80;;
10096;SDS011;5087;42.662;23.466;2024-01-16T06:50:22;2.80;;;2.80;;
10096;SDS011;5087;42.662;23.466;2024-01-16T06:52:53;3.00;;;3.00;;
10096;SDS011;5087;42.662;23.466;2024-01-16T06:55:23;2.80;;;2.80;;
10096;SDS011;5087;42.662;23.466;2024-01-16T06:57:55;3.10;;;3.10;;
10096;SDS011;5087;42.662;23.466;2024-01-16T07:00:32;3.20;;;3.20;;
10096;SDS011;5087;42.662;23.466;2024-01-16T07:03:02;3.00;;;3.00;;
10096;SDS011;5087;42.662;23.466;2024-01-16T07:05:30;3.00;;;3.00;;
10096;SDS011;5087;42.662;23.466;2024-01-16T07:07:59;3.07;;;3.07;;
10096;SDS011;5087;42.662;23.466;2024-01-16T07:10:26;3.07;;;3.07;;
10096;SDS011;5087;42.662;23.466;2024-01-16T07:12:54;3.27;;;3.27;;
10096;SDS011;5087;42.662;23.466;2024-01-16T07:15:22;3.20;;;3.20;;
10096;SDS011;5087;42.662;23.466;2024-01-16T07:17:49;3.23;;;3.23;;
10096;SDS011;5087;42.662;23.466;2024-01-16T07:20:18;3.07;;;3.07;;
10096;SDS011;5087;42.662;23.466;2024-01-16T07:22:46;3.20;;;3.20;;
10096;SDS011;5087;42.662;23.466;2024-01-16T07:25:15;3.10;;;3.10;;
10096;SDS011;5087;42.662;23.466;2024-01-16T07:27:42;3.30;;;3.30;;
10096;SDS011;5087;42.662;23.466;2024-01-16T07:30:14;3.10;;;3.10;;
10096;SDS011;5087;42.662;23.466;2024-01-16T07:32:42;3.00;;;3.00;;
10096;SDS011;5087;42.662;23.466;2024-01-16T07:35:12;3.10;;;3.10;;
10096;SDS011;5087;42.662;23.466;2024-01-16T07:37:40;3.13;;;3.13;;
10096;SDS011;5087;42.662;23.466;2024-01-16T07:40:08;3.00;;;3.00;;
10096;SDS011;5087;42.662;23.466;2024-01-16T07:42:39;3.20;;;3.20;;
10096;SDS011;5087;42.662;23.466;2024-01-16T07:45:07;3.10;;;3.10;;
10096;SDS011;5087;42.662;23.466;2024-01-16T07:47:36;3.10;;;3.10;;
10096;SDS011;5087;42.662;23.466;2024-01-16T07:50:04;3.03;;;3.03;;
10096;SDS011;5087;42.662;23.466;2024-01-16T07:52:32;2.70;;;2.70;;
10096;SDS011;5087;42.662;23.466;2024-01-16T07:54:59;2.50;;;2.50;;
10096;SDS011;5087;42.662;23.466;2024-01-16T07:57:28;2.30;;;2.30;;
10096;SDS011;5087;42.662;23.466;2024-01-16T07:59:57;2.40;;;2.40;;
10096;SDS011;5087;42.662;23.466;2024-01-16T08:02:26;2.60;;;2.60;;
10096;SDS011;5087;42.662;23.466;2024-01-16T08:04:58;2.70;;;2.70;;
10096;SDS011;5087;42.662;23.466;2024-01-16T08:07:26;2.70;;;2.70;;
10096;SDS011;5087;42.662;23.466;2024-01-16T08:09:53;2.90;;;2.90;;
10096;SDS011;5087;42.662;23.466;2024-01-16T08:12:22;2.90;;;2.90;;
10096;SDS011;5087;42.662;23.466;2024-01-16T08:14:50;2.70;;;2.70;;
10096;SDS011;5087;42.662;23.466;2024-01-16T08:17:19;2.90;;;2.90;;
10096;SDS011;5087;42.662;23.466;2024-01-16T08:19:47;2.90;;;2.90;;
10096;SDS011;5087;42.662;23.466;2024-01-16T08:22:14;3.10;;;3.10;;
10096;SDS011;5087;42.662;23.466;2024-01-16T08:24:42;3.07;;;3.07;;
10096;SDS011;5087;42.662;23.466;2024-01-16T08:27:09;3.00;;;3.00;;
10096;SDS011;5087;42.662;23.466;2024-01-16T08:29:37;3.10;;;3.10;;
10096;SDS011;5087;42.662;23.466;2024-01-16T08:32:05;3.03;;;3.03;;
10096;SDS011;5087;42.662;23.466;2024-01-16T08:34:35;3.20;;;3.20;;
10096;SDS011;5087;42.662;23.466;2024-01-16T08:37:02;3.27;;;3.27;;
10096;SDS011;5087;42.662;23.466;2024-01-16T08:39:30;3.13;;;3.13;;
10096;SDS011;5087;42.662;23.466;2024-01-16T08:41:59;3.23;;;3.23;;
10096;SDS011;5087;42.662;23.466;2024-01-16T08:44:28;3.10;;;3.10;;
10096;SDS011;5087;42.662;23.466;2024-01-16T08:46:55;3.40;;;3.40;;
10096;SDS011;5087;42.662;23.466;2024-01-16T08:49:23;3.07;;;3.07;;
10096;SDS011;5087;42.662;23.466;2024-01-16T08:51:55;3.20;;;3.20;;
10096;SDS011;5087;42.662;23.466;2024-01-16T08:54:24;3.60;;;3.60;;
10096;SDS011;5087;42.662;23.466;2024-01-16T08:56:52;3.30;;;3.30;;
10096;SDS011;5087;42.662;23.466;2024-01-16T08:59:19;3.53;;;3.53;;
10096;SDS011;5087;42.662;23.466;2024-01-16T09:01:47;2.90;;;2.90;;
10096;SDS011;5087;42.662;23.466;2024-01-16T09:04:15;3.60;;;3.60;;
10096;SDS011;5087;42.662;23.466;2024-01-16T09:06:42;3.40;;;3.40;;
10096;SDS011;5087;42.662;23.466;2024-01-16T09:09:11;3.50;;;3.50;;
10096;SDS011;5087;42.662;23.466;2024-01-16T09:11:38;3.43;;;3.43;;
10096;SDS011;5087;42.662;23.466;2024-01-16T09:14:16;3.47;;;3.47;;
10096;SDS011;5087;42.662;23.466;2024-01-16T09:55:20;4.20;;;4.10;;
10096;SDS011;5087;42.662;23.466;2024-01-16T09:57:48;3.70;;;3.70;;
10096;SDS011;5087;42.662;23.466;2024-01-16T10:00:20;3.90;;;3.90;;
10096;SDS011;5087;42.662;23.466;2024-01-16T10:02:48;3.50;;;3.50;;
10096;SDS011;5087;42.662;23.466;2024-01-16T10:05:18;3.60;;;3.60;;
10096;SDS011;5087;42.662;23.466;2024-01-16T10:07:46;3.40;;;3.40;;
10096;SDS011;5087;42.662;23.466;2024-01-16T10:10:17;3.70;;;3.70;;
10096;SDS011;5087;42.662;23.466;2024-01-16T10:12:48;3.40;;;3.40;;
10096;SDS011;5087;42.662;23.466;2024-01-16T10:15:20;3.27;;;3.27;;
10096;SDS011;5087;42.662;23.466;2024-01-16T10:17:55;3.40;;;3.40;;
10096;SDS011;5087;42.662;23.466;2024-01-16T10:20:31;3.47;;;3.47;;
10096;SDS011;5087;42.662;23.466;2024-01-16T10:22:59;3.37;;;3.37;;
10096;SDS011;5087;42.662;23.466;2024-01-16T10:25:30;3.23;;;3.23;;
10096;SDS011;5087;42.662;23.466;2024-01-16T10:28:04;3.40;;;3.40;;
10096;SDS011;5087;42.662;23.466;2024-01-16T10:30:35;3.30;;;3.30;;
10096;SDS011;5087;42.662;23.466;2024-01-16T10:33:12;3.20;;;3.20;;
10096;SDS011;5087;42.662;23.466;2024-01-16T10:35:41;3.17;;;3.17;;
10096;SDS011;5087;42.662;23.466;2024-01-16T10:38:09;2.93;;;2.93;;
10096;SDS011;5087;42.662;23.466;2024-01-16T10:40:49;2.90;;;2.90;;
10096;SDS011;5087;42.662;23.466;2024-01-16T10:43:31;2.87;;;2.87;;
10096;SDS011;5087;42.662;23.466;2024-01-16T10:46:06;2.90;;;2.90;;
10096;SDS011;5087;42.662;23.466;2024-01-16T10:48:35;2.90;;;2.90;;
10096;SDS011;5087;42.662;23.466;2024-01-16T10:51:05;2.70;;;2.70;;
10096;SDS011;5087;42.662;23.466;2024-01-16T10:53:34;2.60;;;2.60;;
10096;SDS011;5087;42.662;23.466;2024-01-16T10:56:03;2.50;;;2.50;;
10096;SDS011;5087;42.662;23.466;2024-01-16T10:58:38;2.50;;;2.50;;
10096;SDS011;5087;42.662;23.466;2024-01-16T11:01:11;2.10;;;2.10;;
10096;SDS011;5087;42.662;23.466;2024-01-16T11:03:46;2.20;;;2.20;;
10096;SDS011;5087;42.662;23.466;2024-01-16T11:06:15;2.10;;;2.10;;
10096;SDS011;5087;42.662;23.466;2024-01-16T11:08:45;2.23;;;2.23;;
10096;SDS011;5087;42.662;23.466;2024-01-16T11:11:15;2.20;;;2.20;;
10096;SDS011;5087;42.662;23.466;2024-01-16T11:13:45;2.00;;;2.00;;
10096;SDS011;5087;42.662;23.466;2024-01-16T11:16:13;1.97;;;1.97;;
10096;SDS011;5087;42.662;23.466;2024-01-16T11:18:50;2.50;;;2.50;;
10096;SDS011;5087;42.662;23.466;2024-01-16T11:21:19;2.10;;;2.10;;
10096;SDS011;5087;42.662;23.466;2024-01-16T11:24:08;2.10;;;2.10;;
10096;SDS011;5087;42.662;23.466;2024-01-16T11:26:48;2.50;;;2.50;;
10096;SDS011;5087;42.662;23.466;2024-01-16T11:29:34;2.33;;;2.33;;
10096;SDS011;5087;42.662;23.466;2024-01-16T11:32:06;2.73;;;2.73;;
10096;SDS011;5087;42.662;23.466;2024-01-16T11:34:54;2.70;;;2.70;;
10096;SDS011;5087;42.662;23.466;2024-01-16T11:37:32;2.60;;;2.60;;
10096;SDS011;5087;42.662;23.466;2024-01-16T11:43:38;2.50;;;2.50;;
10096;SDS011;5087;42.662;23.466;2024-01-16T11:46:06;2.60;;;2.60;;
10096;SDS011;5087;42.662;23.466;2024-01-16T11:49:11;2.50;;;2.50;;
10096;SDS011;5087;42.662;23.466;2024-01-16T11:51:46;2.80;;;2.80;;
10096;SDS011;5087;42.662;23.466;2024-01-16T11:54:19;2.60;;;2.60;;
10096;SDS011;5087;42.662;23.466;2024-01-16T11:59:59;2.83;;;2.83;;
10096;SDS011;5087;42.662;23.466;2024-01-16T12:02:51;3.00;;;3.00;;
10096;SDS011;5087;42.662;23.466;2024-01-16T12:05:24;2.80;;;2.80;;
10096;SDS011;5087;42.662;23.466;2024-01-16T12:07:58;2.70;;;2.70;;
10096;SDS011;5087;42.662;23.466;2024-01-16T12:10:45;2.90;;;2.90;;
10096;SDS011;5087;42.662;23.466;2024-01-16T12:13:13;3.13;;;3.13;;
10096;SDS011;5087;42.662;23.466;2024-01-16T12:15:45;3.07;;;3.07;;
10096;SDS011;5087;42.662;23.466;2024-01-16T12:18:18;2.90;;;2.90;;
10096;SDS011;5087;42.662;23.466;2024-01-16T12:20:54;3.07;;;3.07;;
10096;SDS011;5087;42.662;23.466;2024-01-16T12:23:22;2.80;;;2.80;;
10096;SDS011;5087;42.662;23.466;2024-01-16T12:25:52;3.20;;;3.20;;
10096;SDS011;5087;42.662;23.466;2024-01-16T12:28:20;2.77;;;2.77;;
10096;SDS011;5087;42.662;23.466;2024-01-16T12:30:52;3.00;;;3.00;;
10096;SDS011;5087;42.662;23.466;2024-01-16T12:33:21;3.10;;;3.10;;
10096;SDS011;5087;42.662;23.466;2024-01-16T12:35:49;3.00;;;3.00;;
10096;SDS011;5087;42.662;23.466;2024-01-16T12:38:20;3.10;;;3.10;;
10096;SDS011;5087;42.662;23.466;2024-01-16T12:40:49;2.90;;;2.90;;
10096;SDS011;5087;42.662;23.466;2024-01-16T12:43:19;2.60;;;2.60;;
10096;SDS011;5087;42.662;23.466;2024-01-16T12:49:11;2.50;;;2.50;;
10096;SDS011;5087;42.662;23.466;2024-01-16T12:56:25;2.70;;;2.70;;
10096;SDS011;5087;42.662;23.466;2024-01-16T12:58:54;2.30;;;2.30;;
10096;SDS011;5087;42.662;23.466;2024-01-16T13:01:24;2.30;;;2.30;;
10096;SDS011;5087;42.662;23.466;2024-01-16T13:04:30;2.20;;;2.20;;
10096;SDS011;5087;42.662;23.466;2024-01-16T13:07:39;2.60;;;2.60;;
10096;SDS011;5087;42.662;23.466;2024-01-16T13:10:13;2.50;;;2.50;;
10096;SDS011;5087;42.662;23.466;2024-01-16T13:12:44;2.40;;;2.40;;
10096;SDS011;5087;42.662;23.466;2024-01-16T13:18:23;2.20;;;2.20;;
10096;SDS011;5087;42.662;23.466;2024-01-16T13:20:54;2.30;;;2.30;;
10096;SDS011;5087;42.662;23.466;2024-01-16T13:23:23;2.13;;;2.13;;
10096;SDS011;5087;42.662;23.466;2024-01-16T13:25:53;2.20;;;2.20;;
10096;SDS011;5087;42.662;23.466;2024-01-16T13:31:46;2.70;;;2.70;;
10096;SDS011;5087;42.662;23.466;2024-01-16T13:34:34;2.60;;;2.60;;
10096;SDS011;5087;42.662;23.466;2024-01-16T13:37:18;2.30;;;2.30;;
10096;SDS011;5087;42.662;23.466;2024-01-16T13:39:59;2.60;;;2.60;;
10096;SDS011;5087;42.662;23.466;2024-01-16T13:45:50;2.80;;;2.80;;
10096;SDS011;5087;42.662;23.466;2024-01-16T13:48:18;2.80;;;2.80;;
10096;SDS011;5087;42.662;23.466;2024-01-16T13:50:46;2.53;;;2.53;;
10096;SDS011;5087;42.662;23.466;2024-01-16T13:53:15;2.33;;;2.33;;
10096;SDS011;5087;42.662;23.466;2024-01-16T13:55:44;2.57;;;2.57;;
10096;SDS011;5087;42.662;23.466;2024-01-16T13:58:12;2.40;;;2.40;;
10096;SDS011;5087;42.662;23.466;2024-01-16T14:00:40;2.50;;;2.50;;
10096;SDS011;5087;42.662;23.466;2024-01-16T14:03:09;2.53;;;2.53;;
10096;SDS011;5087;42.662;23.466;2024-01-16T14:05:36;2.00;;;2.00;;
10096;SDS011;5087;42.662;23.466;2024-01-16T14:08:07;1.90;;;1.90;;
10096;SDS011;5087;42.662;23.466;2024-01-16T14:10:40;1.90;;;1.90;;
10096;SDS011;5087;42.662;23.466;2024-01-16T14:13:11;1.80;;;1.80;;
10096;SDS011;5087;42.662;23.466;2024-01-16T14:15:39;2.00;;;2.00;;
10096;SDS011;5087;42.662;23.466;2024-01-16T14:18:06;2.00;;;2.00;;
10096;SDS011;5087;42.662;23.466;2024-01-16T14:20:34;2.00;;;2.00;;
10096;SDS011;5087;42.662;23.466;2024-01-16T14:23:02;2.00;;;2.00;;
10096;SDS011;5087;42.662;23.466;2024-01-16T14:25:30;2.10;;;2.10;;
10096;SDS011;5087;42.662;23.466;2024-01-16T14:28:01;2.10;;;2.10;;
10096;SDS011;5087;42.662;23.466;2024-01-16T14:30:36;2.30;;;2.30;;
10096;SDS011;5087;42.662;23.466;2024-01-16T14:35:58;2.10;;;2.10;;
10096;SDS011;5087;42.662;23.466;2024-01-16T14:38:26;2.00;;;2.00;;
10096;SDS011;5087;42.662;23.466;2024-01-16T14:40:54;2.10;;;2.10;;
10096;SDS011;5087;42.662;23.466;2024-01-16T14:43:24;1.90;;;1.90;;
10096;SDS011;5087;42.662;23.466;2024-01-16T14:45:52;1.90;;;1.90;;
10096;SDS011;5087;42.662;23.466;2024-01-16T14:48:20;1.90;;;1.90;;
10096;SDS011;5087;42.662;23.466;2024-01-16T14:50:47;1.90;;;1.90;;
10096;SDS011;5087;42.662;23.466;2024-01-16T14:53:16;2.20;;;2.20;;
10096;SDS011;5087;42.662;23.466;2024-01-16T14:55:44;2.00;;;2.00;;
10096;SDS011;5087;42.662;23.466;2024-01-16T14:58:24;2.13;;;2.13;;
10096;SDS011;5087;42.662;23.466;2024-01-16T15:00:53;2.20;;;2.20;;
10096;SDS011;5087;42.662;23.466;2024-01-16T15:03:22;2.20;;;2.20;;
10096;SDS011;5087;42.662;23.466;2024-01-16T15:05:49;2.20;;;2.20;;
10096;SDS011;5087;42.662;23.466;2024-01-16T15:08:20;2.20;;;2.20;;
10096;SDS011;5087;42.662;23.466;2024-01-16T15:10:48;2.10;;;2.10;;
10096;SDS011;5087;42.662;23.466;2024-01-16T15:13:19;1.90;;;1.90;;
10096;SDS011;5087;42.662;23.466;2024-01-16T15:15:50;2.20;;;2.20;;
10096;SDS011;5087;42.662;23.466;2024-01-16T15:18:21;2.30;;;2.30;;
10096;SDS011;5087;42.662;23.466;2024-01-16T15:20:49;2.33;;;2.33;;
10096;SDS011;5087;42.662;23.466;2024-01-16T15:23:18;2.40;;;2.40;;
10096;SDS011;5087;42.662;23.466;2024-01-16T15:25:46;2.37;;;2.37;;
10096;SDS011;5087;42.662;23.466;2024-01-16T15:28:15;2.20;;;2.20;;
10096;SDS011;5087;42.662;23.466;2024-01-16T15:30:43;2.40;;;2.40;;
10096;SDS011;5087;42.662;23.466;2024-01-16T15:33:12;2.37;;;2.37;;
10096;SDS011;5087;42.662;23.466;2024-01-16T15:35:40;2.20;;;2.20;;
10096;SDS011;5087;42.662;23.466;2024-01-16T15:38:07;2.33;;;2.33;;
10096;SDS011;5087;42.662;23.466;2024-01-16T15:40:35;2.30;;;2.30;;
10096;SDS011;5087;42.662;23.466;2024-01-16T15:43:04;2.30;;;2.30;;
10096;SDS011;5087;42.662;23.466;2024-01-16T15:45:32;2.50;;;2.50;;
10096;SDS011;5087;42.662;23.466;2024-01-16T15:48:01;2.70;;;2.70;;
10096;SDS011;5087;42.662;23.466;2024-01-16T15:50:30;2.50;;;2.50;;
10096;SDS011;5087;42.662;23.466;2024-01-16T15:52:58;2.60;;;2.60;;
10096;SDS011;5087;42.662;23.466;2024-01-16T15:55:25;2.80;;;2.80;;
10096;SDS011;5087;42.662;23.466;2024-01-16T15:57:53;3.03;;;3.03;;
10096;SDS011;5087;42.662;23.466;2024-01-16T16:00:21;2.80;;;2.80;;
10096;SDS011;5087;42.662;23.466;2024-01-16T16:02:48;2.80;;;2.80;;
10096;SDS011;5087;42.662;23.466;2024-01-16T16:05:16;3.23;;;3.23;;
10096;SDS011;5087;42.662;23.466;2024-01-16T16:07:45;3.10;;;3.10;;
10096;SDS011;5087;42.662;23.466;2024-01-16T16:10:13;3.00;;;3.00;;
10096;SDS011;5087;42.662;23.466;2024-01-16T16:12:44;3.10;;;3.10;;